sensor_id;sensor_type;location;lat;lon;timestamp;P1;durP1;ratioP1;P2;durP2;ratioP2
21804;SDS011;11064;47.102;15.452;2023-08-20T05:02:49;30.20;;;25.95;;
21804;SDS011;11064;47.102;15.452;2023-08-20T05:05:15;30.63;;;25.92;;
21804;SDS011;11064;47.102;15.452;2023-08-20T05:07:41;30.92;;;26.95;;
21804;SDS011;11064;47.102;15.452;2023-08-20T05:10:07;33.85;;;28.10;;
21804;SDS011;11064;47.102;15.452;2023-08-20T05:12:34;30.83;;;27.08;;
21804;SDS011;11064;47.102;15.452;2023-08-20T05:15:00;29.70;;;26.45;;
21804;SDS011;11064;47.102;15.452;2023-08-20T05:17:26;30.75;;;25.58;;
21804;SDS011;11064;47.102;15.452;2023-08-20T05:19:52;31.38;;;25.55;;
21804;SDS011;11064;47.102;15.452;2023-08-20T05:22:18;28.02;;;23.85;;
21804;SDS011;11064;47.102;15.452;2023-08-20T05:24:45;27.55;;;23.17;;
21804;SDS011;11064;47.102;15.452;2023-08-20T05:27:12;26.83;;;22.65;;
21804;SDS011;11064;47.102;15.452;2023-08-20T05:29:41;25.20;;;22.55;;
21804;SDS011;11064;47.102;15.452;2023-08-20T05:32:07;28.58;;;21.80;;
21804;SDS011;11064;47.102;15.452;2023-08-20T05:34:33;24.85;;;21.30;;
21804;SDS011;11064;47.102;15.452;2023-08-20T05:36:59;23.25;;;20.77;;
21804;SDS011;11064;47.102;15.452;2023-08-20T05:39:25;21.35;;;19.15;;
21804;SDS011;11064;47.102;15.452;2023-08-20T05:41:52;22.42;;;18.80;;
21804;SDS011;11064;47.102;15.452;2023-08-20T05:44:18;22.25;;;18.67;;
21804;SDS011;11064;47.102;15.452;2023-08-20T05:46:44;20.23;;;18.05;;
21804;SDS011;11064;47.102;15.452;2023-08-20T05:49:10;20.52;;;18.15;;
21804;SDS011;11064;47.102;15.452;2023-08-20T05:51:35;19.95;;;17.55;;
21804;SDS011;11064;47.102;15.452;2023-08-20T05:54:01;18.98;;;17.08;;
21804;SDS011;11064;47.102;15.452;2023-08-20T05:56:27;21.88;;;17.95;;
21804;SDS011;11064;47.102;15.452;2023-08-20T05:58:53;18.98;;;16.98;;
21804;SDS011;11064;47.102;15.452;2023-08-20T06:01:19;19.08;;;17.08;;
21804;SDS011;11064;47.102;15.452;2023-08-20T06:03:45;18.35;;;16.45;;
21804;SDS011;11064;47.102;15.452;2023-08-20T06:06:10;18.60;;;16.17;;
21804;SDS011;11064;47.102;15.452;2023-08-20T06:08:36;20.20;;;16.23;;
21804;SDS011;11064;47.102;15.452;2023-08-20T06:11:02;17.90;;;16.00;;
21804;SDS011;11064;47.102;15.452;2023-08-20T06:13:28;17.73;;;15.90;;
21804;SDS011;11064;47.102;15.452;2023-08-20T06:15:54;18.25;;;15.30;;
21804;SDS011;11064;47.102;15.452;2023-08-20T06:18:20;17.02;;;14.98;;
21804;SDS011;11064;47.102;15.452;2023-08-20T06:20:46;16.63;;;14.90;;
21804;SDS011;11064;47.102;15.452;2023-08-20T06:23:12;17.02;;;15.27;;
21804;SDS011;11064;47.102;15.452;2023-08-20T06:25:38;17.50;;;15.52;;
21804;SDS011;11064;47.102;15.452;2023-08-20T06:28:04;16.67;;;14.82;;
21804;SDS011;11064;47.102;15.452;2023-08-20T06:30:30;17.17;;;15.32;;
21804;SDS011;11064;47.102;15.452;2023-08-20T06:32:55;16.10;;;14.50;;
21804;SDS011;11064;47.102;15.452;2023-08-20T06:35:21;18.50;;;14.35;;
21804;SDS011;11064;47.102;15.452;2023-08-20T06:37:47;17.10;;;14.07;;
21804;SDS011;11064;47.102;15.452;2023-08-20T06:40:13;16.13;;;14.55;;
21804;SDS011;11064;47.102;15.452;2023-08-20T06:42:39;16.08;;;14.18;;
21804;SDS011;11064;47.102;15.452;2023-08-20T06:45:05;16.90;;;13.77;;
21804;SDS011;11064;47.102;15.452;2023-08-20T06:47:33;16.10;;;14.50;;
21804;SDS011;11064;47.102;15.452;2023-08-20T06:49:58;17.90;;;14.05;;
21804;SDS011;11064;47.102;15.452;2023-08-20T06:52:24;18.13;;;13.82;;
21804;SDS011;11064;47.102;15.452;2023-08-20T06:54:50;14.93;;;13.32;;
21804;SDS011;11064;47.102;15.452;2023-08-20T06:57:16;15.60;;;13.70;;
21804;SDS011;11064;47.102;15.452;2023-08-20T06:59:42;14.13;;;12.77;;
21804;SDS011;11064;47.102;15.452;2023-08-20T07:02:09;15.27;;;12.73;;
21804;SDS011;11064;47.102;15.452;2023-08-20T07:04:35;15.75;;;13.20;;
21804;SDS011;11064;47.102;15.452;2023-08-20T07:07:01;14.40;;;12.90;;
21804;SDS011;11064;47.102;15.452;2023-08-20T07:09:29;15.85;;;13.50;;
21804;SDS011;11064;47.102;15.452;2023-08-20T07:11:55;14.63;;;13.13;;
21804;SDS011;11064;47.102;15.452;2023-08-20T07:14:21;13.93;;;12.52;;
21804;SDS011;11064;47.102;15.452;2023-08-20T07:16:47;15.30;;;13.13;;
21804;SDS011;11064;47.102;15.452;2023-08-20T07:19:13;14.18;;;12.77;;
21804;SDS011;11064;47.102;15.452;2023-08-20T07:21:39;15.88;;;13.25;;
21804;SDS011;11064;47.102;15.452;2023-08-20T07:24:05;13.80;;;12.00;;
21804;SDS011;11064;47.102;15.452;2023-08-20T07:26:31;14.55;;;13.05;;
21804;SDS011;11064;47.102;15.452;2023-08-20T07:28:57;14.95;;;12.98;;
21804;SDS011;11064;47.102;15.452;2023-08-20T07:31:23;14.93;;;12.27;;
21804;SDS011;11064;47.102;15.452;2023-08-20T07:33:54;14.05;;;12.65;;
21804;SDS011;11064;47.102;15.452;2023-08-20T07:36:21;13.85;;;12.27;;
21804;SDS011;11064;47.102;15.452;2023-08-20T07:38:48;12.82;;;11.52;;
21804;SDS011;11064;47.102;15.452;2023-08-20T07:41:15;13.73;;;11.85;;
21804;SDS011;11064;47.102;15.452;2023-08-20T07:43:41;16.35;;;12.20;;
21804;SDS011;11064;47.102;15.452;2023-08-20T07:46:08;14.38;;;11.40;;
21804;SDS011;11064;47.102;15.452;2023-08-20T07:48:35;12.15;;;11.05;;
21804;SDS011;11064;47.102;15.452;2023-08-20T07:51:01;12.52;;;11.27;;
21804;SDS011;11064;47.102;15.452;2023-08-20T07:53:28;13.38;;;11.30;;
21804;SDS011;11064;47.102;15.452;2023-08-20T07:55:55;15.98;;;11.27;;
21804;SDS011;11064;47.102;15.452;2023-08-20T07:58:21;12.63;;;10.82;;
21804;SDS011;11064;47.102;15.452;2023-08-20T08:00:47;11.75;;;10.65;;
21804;SDS011;11064;47.102;15.452;2023-08-20T08:03:13;12.95;;;10.77;;
21804;SDS011;11064;47.102;15.452;2023-08-20T08:05:46;12.00;;;10.80;;
21804;SDS011;11064;47.102;15.452;2023-08-20T08:08:16;12.40;;;10.43;;
21804;SDS011;11064;47.102;15.452;2023-08-20T08:10:42;11.60;;;10.50;;
21804;SDS011;11064;47.102;15.452;2023-08-20T08:13:13;13.20;;;10.93;;
21804;SDS011;11064;47.102;15.452;2023-08-20T08:15:41;11.77;;;10.55;;
21804;SDS011;11064;47.102;15.452;2023-08-20T08:18:07;11.57;;;10.27;;
21804;SDS011;11064;47.102;15.452;2023-08-20T08:20:33;12.52;;;10.57;;
21804;SDS011;11064;47.102;15.452;2023-08-20T08:23:00;11.50;;;10.30;;
21804;SDS011;11064;47.102;15.452;2023-08-20T08:25:26;11.27;;;9.95;;
21804;SDS011;11064;47.102;15.452;2023-08-20T08:27:52;13.35;;;10.30;;
21804;SDS011;11064;47.102;15.452;2023-08-20T08:30:18;11.75;;;10.48;;
21804;SDS011;11064;47.102;15.452;2023-08-20T08:32:44;12.65;;;10.10;;
21804;SDS011;11064;47.102;15.452;2023-08-20T08:35:10;11.25;;;10.18;;
21804;SDS011;11064;47.102;15.452;2023-08-20T08:37:36;11.85;;;9.82;;
21804;SDS011;11064;47.102;15.452;2023-08-20T08:40:03;10.65;;;9.65;;
21804;SDS011;11064;47.102;15.452;2023-08-20T08:42:35;10.83;;;9.73;;
21804;SDS011;11064;47.102;15.452;2023-08-20T08:45:01;10.55;;;9.45;;
21804;SDS011;11064;47.102;15.452;2023-08-20T08:47:28;12.60;;;9.68;;
21804;SDS011;11064;47.102;15.452;2023-08-20T08:49:55;12.40;;;9.85;;
21804;SDS011;11064;47.102;15.452;2023-08-20T08:52:25;12.50;;;9.80;;
21804;SDS011;11064;47.102;15.452;2023-08-20T08:54:52;13.60;;;9.98;;
21804;SDS011;11064;47.102;15.452;2023-08-20T08:57:18;12.00;;;9.73;;
21804;SDS011;11064;47.102;15.452;2023-08-20T08:59:44;10.98;;;9.77;;
21804;SDS011;11064;47.102;15.452;2023-08-20T09:02:11;12.25;;;10.02;;
21804;SDS011;11064;47.102;15.452;2023-08-20T09:04:38;12.02;;;9.75;;
21804;SDS011;11064;47.102;15.452;2023-08-20T09:07:11;11.13;;;9.63;;
21804;SDS011;11064;47.102;15.452;2023-08-20T09:09:41;11.40;;;10.30;;
21804;SDS011;11064;47.102;15.452;2023-08-20T09:12:14;10.68;;;9.57;;
21804;SDS011;11064;47.102;15.452;2023-08-20T09:14:48;11.10;;;9.88;;
21804;SDS011;11064;47.102;15.452;2023-08-20T09:17:16;10.82;;;9.73;;
21804;SDS011;11064;47.102;15.452;2023-08-20T09:19:43;10.38;;;9.27;;
21804;SDS011;11064;47.102;15.452;2023-08-20T09:22:13;10.45;;;9.45;;
21804;SDS011;11064;47.102;15.452;2023-08-20T09:24:41;10.02;;;9.05;;
21804;SDS011;11064;47.102;15.452;2023-08-20T09:27:10;9.77;;;8.80;;
21804;SDS011;11064;47.102;15.452;2023-08-20T09:29:43;9.50;;;8.60;;
21804;SDS011;11064;47.102;15.452;2023-08-20T09:34:51;11.70;;;8.93;;
21804;SDS011;11064;47.102;15.452;2023-08-20T09:37:19;11.73;;;8.63;;
21804;SDS011;11064;47.102;15.452;2023-08-20T09:39:46;10.10;;;8.15;;
21804;SDS011;11064;47.102;15.452;2023-08-20T09:42:13;10.23;;;8.65;;
21804;SDS011;11064;47.102;15.452;2023-08-20T09:44:40;11.13;;;7.75;;
21804;SDS011;11064;47.102;15.452;2023-08-20T09:47:08;9.35;;;8.18;;
21804;SDS011;11064;47.102;15.452;2023-08-20T09:52:08;13.38;;;8.68;;
21804;SDS011;11064;47.102;15.452;2023-08-20T09:54:45;9.50;;;8.48;;
21804;SDS011;11064;47.102;15.452;2023-08-20T09:57:38;11.80;;;8.30;;
21804;SDS011;11064;47.102;15.452;2023-08-20T10:00:05;9.98;;;8.40;;
21804;SDS011;11064;47.102;15.452;2023-08-20T10:02:35;10.82;;;9.25;;
21804;SDS011;11064;47.102;15.452;2023-08-20T10:05:05;9.60;;;8.63;;
21804;SDS011;11064;47.102;15.452;2023-08-20T10:07:32;11.60;;;8.63;;
21804;SDS011;11064;47.102;15.452;2023-08-20T10:10:03;15.50;;;8.63;;
21804;SDS011;11064;47.102;15.452;2023-08-20T10:12:31;9.80;;;8.90;;
21804;SDS011;11064;47.102;15.452;2023-08-20T10:15:01;11.60;;;9.15;;
21804;SDS011;11064;47.102;15.452;2023-08-20T10:19:58;10.25;;;8.25;;
21804;SDS011;11064;47.102;15.452;2023-08-20T10:22:36;9.32;;;8.32;;
21804;SDS011;11064;47.102;15.452;2023-08-20T10:25:06;10.07;;;8.82;;
21804;SDS011;11064;47.102;15.452;2023-08-20T10:27:37;10.30;;;9.27;;
21804;SDS011;11064;47.102;15.452;2023-08-20T10:30:13;9.98;;;7.85;;
21804;SDS011;11064;47.102;15.452;2023-08-20T10:32:49;8.65;;;7.55;;
21804;SDS011;11064;47.102;15.452;2023-08-20T10:35:22;8.73;;;7.78;;
21804;SDS011;11064;47.102;15.452;2023-08-20T10:38:00;8.75;;;7.95;;
21804;SDS011;11064;47.102;15.452;2023-08-20T10:40:51;8.45;;;7.55;;
21804;SDS011;11064;47.102;15.452;2023-08-20T10:43:30;7.85;;;7.05;;
21804;SDS011;11064;47.102;15.452;2023-08-20T10:46:07;7.38;;;6.60;;
21804;SDS011;11064;47.102;15.452;2023-08-20T10:48:53;9.02;;;7.00;;
21804;SDS011;11064;47.102;15.452;2023-08-20T10:51:24;8.10;;;6.60;;
21804;SDS011;11064;47.102;15.452;2023-08-20T10:59:15;11.43;;;7.85;;
21804;SDS011;11064;47.102;15.452;2023-08-20T11:01:53;10.07;;;7.22;;
21804;SDS011;11064;47.102;15.452;2023-08-20T11:04:21;9.25;;;7.28;;
21804;SDS011;11064;47.102;15.452;2023-08-20T11:06:55;8.15;;;7.35;;
21804;SDS011;11064;47.102;15.452;2023-08-20T11:09:26;9.50;;;6.95;;
21804;SDS011;11064;47.102;15.452;2023-08-20T11:11:53;8.35;;;7.00;;
21804;SDS011;11064;47.102;15.452;2023-08-20T11:14:20;9.02;;;7.30;;
21804;SDS011;11064;47.102;15.452;2023-08-20T11:16:47;8.18;;;7.38;;
21804;SDS011;11064;47.102;15.452;2023-08-20T11:19:14;9.10;;;7.47;;
21804;SDS011;11064;47.102;15.452;2023-08-20T11:21:43;9.95;;;7.78;;
21804;SDS011;11064;47.102;15.452;2023-08-20T11:24:11;7.72;;;6.95;;
21804;SDS011;11064;47.102;15.452;2023-08-20T11:26:41;7.88;;;7.05;;
21804;SDS011;11064;47.102;15.452;2023-08-20T11:29:12;9.60;;;7.13;;
21804;SDS011;11064;47.102;15.452;2023-08-20T11:31:40;9.13;;;7.13;;
21804;SDS011;11064;47.102;15.452;2023-08-20T11:34:06;8.48;;;7.55;;
21804;SDS011;11064;47.102;15.452;2023-08-20T11:36:35;10.00;;;7.82;;
21804;SDS011;11064;47.102;15.452;2023-08-20T11:39:01;8.68;;;7.68;;
21804;SDS011;11064;47.102;15.452;2023-08-20T11:41:27;8.02;;;7.22;;
21804;SDS011;11064;47.102;15.452;2023-08-20T11:43:53;10.95;;;7.53;;
21804;SDS011;11064;47.102;15.452;2023-08-20T11:46:20;10.75;;;7.75;;
21804;SDS011;11064;47.102;15.452;2023-08-20T11:49:05;8.40;;;7.47;;
21804;SDS011;11064;47.102;15.452;2023-08-20T11:51:38;8.75;;;7.13;;
21804;SDS011;11064;47.102;15.452;2023-08-20T11:54:11;10.13;;;7.25;;
21804;SDS011;11064;47.102;15.452;2023-08-20T11:56:45;9.18;;;7.72;;
21804;SDS011;11064;47.102;15.452;2023-08-20T11:59:14;9.48;;;7.45;;
21804;SDS011;11064;47.102;15.452;2023-08-20T12:01:41;8.02;;;7.22;;
21804;SDS011;11064;47.102;15.452;2023-08-20T12:04:08;8.10;;;7.30;;
21804;SDS011;11064;47.102;15.452;2023-08-20T12:06:36;9.30;;;7.43;;
21804;SDS011;11064;47.102;15.452;2023-08-20T12:09:22;7.95;;;7.05;;
21804;SDS011;11064;47.102;15.452;2023-08-20T12:11:52;10.77;;;7.65;;
21804;SDS011;11064;47.102;15.452;2023-08-20T12:14:21;9.60;;;7.00;;
21804;SDS011;11064;47.102;15.452;2023-08-20T12:16:47;9.10;;;7.20;;
21804;SDS011;11064;47.102;15.452;2023-08-20T12:19:13;9.52;;;6.95;;
21804;SDS011;11064;47.102;15.452;2023-08-20T12:21:39;8.73;;;7.05;;
21804;SDS011;11064;47.102;15.452;2023-08-20T12:24:09;7.90;;;6.88;;
21804;SDS011;11064;47.102;15.452;2023-08-20T12:26:39;7.82;;;6.90;;
21804;SDS011;11064;47.102;15.452;2023-08-20T12:29:05;7.72;;;7.03;;
21804;SDS011;11064;47.102;15.452;2023-08-20T12:31:32;10.57;;;6.70;;
21804;SDS011;11064;47.102;15.452;2023-08-20T12:33:59;7.93;;;7.13;;
21804;SDS011;11064;47.102;15.452;2023-08-20T12:36:27;8.47;;;6.87;;
21804;SDS011;11064;47.102;15.452;2023-08-20T12:38:54;7.82;;;6.85;;
21804;SDS011;11064;47.102;15.452;2023-08-20T12:41:21;7.20;;;6.53;;
21804;SDS011;11064;47.102;15.452;2023-08-20T12:43:47;7.50;;;6.80;;
21804;SDS011;11064;47.102;15.452;2023-08-20T12:46:13;8.68;;;7.30;;
21804;SDS011;11064;47.102;15.452;2023-08-20T12:48:39;9.55;;;6.82;;
21804;SDS011;11064;47.102;15.452;2023-08-20T12:51:05;7.97;;;6.65;;
21804;SDS011;11064;47.102;15.452;2023-08-20T12:53:32;8.13;;;7.28;;
21804;SDS011;11064;47.102;15.452;2023-08-20T12:55:58;7.80;;;6.70;;
21804;SDS011;11064;47.102;15.452;2023-08-20T12:58:24;7.93;;;7.03;;
21804;SDS011;11064;47.102;15.452;2023-08-20T13:00:50;7.75;;;7.05;;
21804;SDS011;11064;47.102;15.452;2023-08-20T13:03:17;10.52;;;8.13;;
21804;SDS011;11064;47.102;15.452;2023-08-20T13:05:44;8.48;;;7.50;;
21804;SDS011;11064;47.102;15.452;2023-08-20T13:08:10;19.70;;;11.85;;
21804;SDS011;11064;47.102;15.452;2023-08-20T13:10:41;13.52;;;10.95;;
21804;SDS011;11064;47.102;15.452;2023-08-20T13:15:35;20.38;;;18.13;;
21804;SDS011;11064;47.102;15.452;2023-08-20T13:18:01;11.52;;;10.23;;
21804;SDS011;11064;47.102;15.452;2023-08-20T13:20:28;21.77;;;17.05;;
21804;SDS011;11064;47.102;15.452;2023-08-20T13:22:53;9.38;;;8.13;;
21804;SDS011;11064;47.102;15.452;2023-08-20T13:25:19;9.00;;;7.07;;
21804;SDS011;11064;47.102;15.452;2023-08-20T13:27:48;8.53;;;7.13;;
21804;SDS011;11064;47.102;15.452;2023-08-20T13:30:15;9.13;;;7.10;;
21804;SDS011;11064;47.102;15.452;2023-08-20T13:32:41;7.88;;;6.70;;
21804;SDS011;11064;47.102;15.452;2023-08-20T13:35:07;7.38;;;6.68;;
21804;SDS011;11064;47.102;15.452;2023-08-20T13:37:33;7.38;;;6.68;;
21804;SDS011;11064;47.102;15.452;2023-08-20T13:40:00;7.78;;;6.97;;
21804;SDS011;11064;47.102;15.452;2023-08-20T13:42:26;8.73;;;7.40;;
21804;SDS011;11064;47.102;15.452;2023-08-20T13:44:52;7.90;;;7.07;;
21804;SDS011;11064;47.102;15.452;2023-08-20T13:47:18;7.32;;;6.63;;
21804;SDS011;11064;47.102;15.452;2023-08-20T13:49:44;9.45;;;7.20;;
21804;SDS011;11064;47.102;15.452;2023-08-20T13:52:10;8.13;;;7.18;;
21804;SDS011;11064;47.102;15.452;2023-08-20T13:54:36;9.35;;;7.30;;
21804;SDS011;11064;47.102;15.452;2023-08-20T13:57:02;8.18;;;7.38;;
21804;SDS011;11064;47.102;15.452;2023-08-20T13:59:30;7.97;;;7.28;;
21804;SDS011;11064;47.102;15.452;2023-08-20T14:01:57;7.93;;;6.95;;
21804;SDS011;11064;47.102;15.452;2023-08-20T14:04:24;8.70;;;7.10;;
21804;SDS011;11064;47.102;15.452;2023-08-20T14:06:50;7.95;;;7.15;;
21804;SDS011;11064;47.102;15.452;2023-08-20T14:09:16;8.05;;;7.20;;
21804;SDS011;11064;47.102;15.452;2023-08-20T14:11:44;8.18;;;7.28;;
21804;SDS011;11064;47.102;15.452;2023-08-20T14:14:10;8.02;;;7.15;;
21804;SDS011;11064;47.102;15.452;2023-08-20T14:16:37;9.85;;;7.45;;
21804;SDS011;11064;47.102;15.452;2023-08-20T14:19:03;9.35;;;7.57;;
21804;SDS011;11064;47.102;15.452;2023-08-20T14:21:28;8.43;;;7.63;;
21804;SDS011;11064;47.102;15.452;2023-08-20T14:23:54;8.63;;;7.82;;
21804;SDS011;11064;47.102;15.452;2023-08-20T14:26:20;9.82;;;7.53;;
21804;SDS011;11064;47.102;15.452;2023-08-20T14:28:46;9.57;;;7.28;;
21804;SDS011;11064;47.102;15.452;2023-08-20T14:31:12;8.20;;;7.47;;
21804;SDS011;11064;47.102;15.452;2023-08-20T14:33:39;8.88;;;7.57;;
21804;SDS011;11064;47.102;15.452;2023-08-20T14:36:05;8.18;;;7.32;;
21804;SDS011;11064;47.102;15.452;2023-08-20T14:38:31;7.90;;;7.15;;
21804;SDS011;11064;47.102;15.452;2023-08-20T14:41:00;9.27;;;7.40;;
21804;SDS011;11064;47.102;15.452;2023-08-20T14:43:27;8.70;;;6.80;;
21804;SDS011;11064;47.102;15.452;2023-08-20T14:45:53;8.25;;;7.43;;
21804;SDS011;11064;47.102;15.452;2023-08-20T14:48:20;8.95;;;7.45;;
21804;SDS011;11064;47.102;15.452;2023-08-20T14:50:50;8.68;;;7.65;;
21804;SDS011;11064;47.102;15.452;2023-08-20T14:53:17;8.18;;;7.28;;
21804;SDS011;11064;47.102;15.452;2023-08-20T14:55:44;8.10;;;7.38;;
21804;SDS011;11064;47.102;15.452;2023-08-20T14:58:11;9.80;;;7.60;;
21804;SDS011;11064;47.102;15.452;2023-08-20T15:00:38;8.73;;;7.93;;
21804;SDS011;11064;47.102;15.452;2023-08-20T15:03:04;9.38;;;7.40;;
21804;SDS011;11064;47.102;15.452;2023-08-20T15:05:31;8.32;;;7.43;;
21804;SDS011;11064;47.102;15.452;2023-08-20T15:07:58;8.60;;;7.80;;
21804;SDS011;11064;47.102;15.452;2023-08-20T15:10:24;8.70;;;7.80;;
21804;SDS011;11064;47.102;15.452;2023-08-20T15:12:49;9.13;;;7.50;;
21804;SDS011;11064;47.102;15.452;2023-08-20T15:15:15;8.80;;;7.88;;
21804;SDS011;11064;47.102;15.452;2023-08-20T15:17:41;8.50;;;7.32;;
21804;SDS011;11064;47.102;15.452;2023-08-20T15:20:07;8.68;;;7.60;;
21804;SDS011;11064;47.102;15.452;2023-08-20T15:22:38;8.60;;;7.80;;
21804;SDS011;11064;47.102;15.452;2023-08-20T15:25:05;9.25;;;7.95;;
21804;SDS011;11064;47.102;15.452;2023-08-20T15:30:02;9.15;;;7.55;;
21804;SDS011;11064;47.102;15.452;2023-08-20T15:32:30;8.52;;;7.70;;
21804;SDS011;11064;47.102;15.452;2023-08-20T15:34:56;10.30;;;8.05;;
21804;SDS011;11064;47.102;15.452;2023-08-20T15:37:22;8.60;;;7.78;;
21804;SDS011;11064;47.102;15.452;2023-08-20T15:39:48;9.25;;;7.57;;
21804;SDS011;11064;47.102;15.452;2023-08-20T15:42:15;9.57;;;7.63;;
21804;SDS011;11064;47.102;15.452;2023-08-20T15:44:42;8.65;;;7.82;;
21804;SDS011;11064;47.102;15.452;2023-08-20T15:47:09;10.80;;;8.18;;
21804;SDS011;11064;47.102;15.452;2023-08-20T15:49:35;9.15;;;8.25;;
21804;SDS011;11064;47.102;15.452;2023-08-20T15:52:00;8.32;;;7.53;;
21804;SDS011;11064;47.102;15.452;2023-08-20T15:54:28;8.80;;;7.57;;
21804;SDS011;11064;47.102;15.452;2023-08-20T15:56:54;8.50;;;7.70;;
21804;SDS011;11064;47.102;15.452;2023-08-20T15:59:20;9.95;;;7.60;;
21804;SDS011;11064;47.102;15.452;2023-08-20T16:01:46;8.38;;;7.43;;
21804;SDS011;11064;47.102;15.452;2023-08-20T16:04:12;8.45;;;7.55;;
21804;SDS011;11064;47.102;15.452;2023-08-20T16:06:39;9.25;;;7.30;;
21804;SDS011;11064;47.102;15.452;2023-08-20T16:09:04;10.15;;;7.80;;
21804;SDS011;11064;47.102;15.452;2023-08-20T16:11:33;9.07;;;7.53;;
21804;SDS011;11064;47.102;15.452;2023-08-20T16:13:59;8.65;;;7.63;;
21804;SDS011;11064;47.102;15.452;2023-08-20T16:16:25;8.20;;;7.30;;
21804;SDS011;11064;47.102;15.452;2023-08-20T16:18:52;8.63;;;7.28;;
21804;SDS011;11064;47.102;15.452;2023-08-20T16:21:18;9.75;;;7.70;;
21804;SDS011;11064;47.102;15.452;2023-08-20T16:23:44;8.20;;;7.35;;
21804;SDS011;11064;47.102;15.452;2023-08-20T16:26:10;8.38;;;7.57;;
21804;SDS011;11064;47.102;15.452;2023-08-20T16:28:37;7.90;;;7.20;;
21804;SDS011;11064;47.102;15.452;2023-08-20T16:31:03;8.70;;;7.80;;
21804;SDS011;11064;47.102;15.452;2023-08-20T16:33:30;8.82;;;7.78;;
21804;SDS011;11064;47.102;15.452;2023-08-20T16:35:56;8.82;;;7.93;;
21804;SDS011;11064;47.102;15.452;2023-08-20T16:38:22;8.75;;;7.68;;
21804;SDS011;11064;47.102;15.452;2023-08-20T16:40:48;9.43;;;8.52;;
21804;SDS011;11064;47.102;15.452;2023-08-20T16:43:15;8.77;;;7.97;;
21804;SDS011;11064;47.102;15.452;2023-08-20T16:45:43;8.93;;;8.02;;
21804;SDS011;11064;47.102;15.452;2023-08-20T16:48:09;10.18;;;8.63;;
21804;SDS011;11064;47.102;15.452;2023-08-20T16:50:36;9.65;;;8.65;;
21804;SDS011;11064;47.102;15.452;2023-08-20T16:53:02;10.40;;;8.38;;
21804;SDS011;11064;47.102;15.452;2023-08-20T16:55:28;9.50;;;8.60;;
21804;SDS011;11064;47.102;15.452;2023-08-20T16:57:54;9.25;;;8.35;;
21804;SDS011;11064;47.102;15.452;2023-08-20T17:00:20;9.65;;;8.13;;
21804;SDS011;11064;47.102;15.452;2023-08-20T17:02:46;10.07;;;8.98;;
21804;SDS011;11064;47.102;15.452;2023-08-20T17:05:13;9.50;;;8.60;;
21804;SDS011;11064;47.102;15.452;2023-08-20T17:07:39;10.25;;;9.25;;
21804;SDS011;11064;47.102;15.452;2023-08-20T17:10:06;10.00;;;8.70;;
21804;SDS011;11064;47.102;15.452;2023-08-20T17:12:33;9.98;;;8.95;;
21804;SDS011;11064;47.102;15.452;2023-08-20T17:14:59;11.70;;;9.02;;
21804;SDS011;11064;47.102;15.452;2023-08-20T17:17:27;12.82;;;8.98;;
21804;SDS011;11064;47.102;15.452;2023-08-20T17:19:54;12.27;;;9.57;;
21804;SDS011;11064;47.102;15.452;2023-08-20T17:22:20;10.85;;;9.55;;
21804;SDS011;11064;47.102;15.452;2023-08-20T17:24:46;9.57;;;8.60;;
21804;SDS011;11064;47.102;15.452;2023-08-20T17:27:12;10.20;;;9.10;;
21804;SDS011;11064;47.102;15.452;2023-08-20T17:29:39;10.30;;;9.20;;
21804;SDS011;11064;47.102;15.452;2023-08-20T17:32:05;10.23;;;9.23;;
21804;SDS011;11064;47.102;15.452;2023-08-20T17:34:31;11.95;;;9.20;;
21804;SDS011;11064;47.102;15.452;2023-08-20T17:36:59;16.52;;;10.23;;
21804;SDS011;11064;47.102;15.452;2023-08-20T17:39:25;10.70;;;9.60;;
21804;SDS011;11064;47.102;15.452;2023-08-20T17:41:52;10.18;;;9.07;;
21804;SDS011;11064;47.102;15.452;2023-08-20T17:44:18;9.52;;;8.63;;
21804;SDS011;11064;47.102;15.452;2023-08-20T17:46:45;10.25;;;9.25;;
21804;SDS011;11064;47.102;15.452;2023-08-20T17:49:12;11.02;;;9.60;;
21804;SDS011;11064;47.102;15.452;2023-08-20T17:51:39;10.02;;;9.02;;
21804;SDS011;11064;47.102;15.452;2023-08-20T17:54:06;10.75;;;9.65;;
21804;SDS011;11064;47.102;15.452;2023-08-20T17:56:33;10.15;;;9.07;;
21804;SDS011;11064;47.102;15.452;2023-08-20T17:59:02;10.93;;;8.93;;
21804;SDS011;11064;47.102;15.452;2023-08-20T18:01:28;10.60;;;9.57;;
21804;SDS011;11064;47.102;15.452;2023-08-20T18:03:54;10.95;;;9.90;;
21804;SDS011;11064;47.102;15.452;2023-08-20T18:06:20;10.82;;;9.73;;
21804;SDS011;11064;47.102;15.452;2023-08-20T18:08:47;11.48;;;10.27;;
21804;SDS011;11064;47.102;15.452;2023-08-20T18:11:13;11.75;;;9.73;;
21804;SDS011;11064;47.102;15.452;2023-08-20T18:13:39;11.27;;;10.18;;
21804;SDS011;11064;47.102;15.452;2023-08-20T18:16:05;12.52;;;9.90;;
21804;SDS011;11064;47.102;15.452;2023-08-20T18:18:33;11.23;;;10.10;;
21804;SDS011;11064;47.102;15.452;2023-08-20T18:21:02;11.73;;;10.52;;
21804;SDS011;11064;47.102;15.452;2023-08-20T18:23:29;10.60;;;9.60;;
21804;SDS011;11064;47.102;15.452;2023-08-20T18:25:58;14.23;;;10.52;;
21804;SDS011;11064;47.102;15.452;2023-08-20T18:28:24;12.77;;;10.60;;
21804;SDS011;11064;47.102;15.452;2023-08-20T18:30:53;11.65;;;10.50;;
21804;SDS011;11064;47.102;15.452;2023-08-20T18:33:20;13.45;;;10.63;;
21804;SDS011;11064;47.102;15.452;2023-08-20T18:35:47;11.88;;;10.68;;
21804;SDS011;11064;47.102;15.452;2023-08-20T18:40:57;12.25;;;10.98;;
21804;SDS011;11064;47.102;15.452;2023-08-20T18:43:28;11.73;;;10.55;;
21804;SDS011;11064;47.102;15.452;2023-08-20T18:45:54;12.55;;;10.27;;
21804;SDS011;11064;47.102;15.452;2023-08-20T18:48:21;12.50;;;10.90;;
21804;SDS011;11064;47.102;15.452;2023-08-20T18:50:47;12.32;;;10.95;;
21804;SDS011;11064;47.102;15.452;2023-08-20T18:53:14;16.00;;;10.65;;
21804;SDS011;11064;47.102;15.452;2023-08-20T18:55:40;12.35;;;11.13;;
21804;SDS011;11064;47.102;15.452;2023-08-20T18:58:06;11.18;;;10.07;;
21804;SDS011;11064;47.102;15.452;2023-08-20T19:00:33;11.70;;;10.57;;
21804;SDS011;11064;47.102;15.452;2023-08-20T19:02:59;12.25;;;10.95;;
21804;SDS011;11064;47.102;15.452;2023-08-20T19:05:26;12.27;;;10.60;;
21804;SDS011;11064;47.102;15.452;2023-08-20T19:07:54;11.57;;;10.48;;
21804;SDS011;11064;47.102;15.452;2023-08-20T19:10:21;11.45;;;10.25;;
21804;SDS011;11064;47.102;15.452;2023-08-20T19:12:47;11.73;;;10.50;;
21804;SDS011;11064;47.102;15.452;2023-08-20T19:15:14;11.75;;;10.57;;
21804;SDS011;11064;47.102;15.452;2023-08-20T19:17:40;11.70;;;10.50;;
21804;SDS011;11064;47.102;15.452;2023-08-20T19:20:06;12.20;;;10.18;;
21804;SDS011;11064;47.102;15.452;2023-08-20T19:22:34;13.85;;;11.13;;
21804;SDS011;11064;47.102;15.452;2023-08-20T19:25:02;11.77;;;10.50;;
21804;SDS011;11064;47.102;15.452;2023-08-20T19:27:29;12.27;;;10.25;;
21804;SDS011;11064;47.102;15.452;2023-08-20T19:29:56;11.90;;;10.70;;
21804;SDS011;11064;47.102;15.452;2023-08-20T19:32:26;11.35;;;10.20;;
21804;SDS011;11064;47.102;15.452;2023-08-20T19:34:54;11.23;;;10.13;;
21804;SDS011;11064;47.102;15.452;2023-08-20T19:37:20;11.57;;;10.48;;
21804;SDS011;11064;47.102;15.452;2023-08-20T19:39:46;12.77;;;10.90;;
21804;SDS011;11064;47.102;15.452;2023-08-20T19:42:12;13.00;;;10.43;;
21804;SDS011;11064;47.102;15.452;2023-08-20T19:44:41;14.07;;;12.02;;